sensor_id;sensor_type;location;lat;lon;timestamp;P1;durP1;ratioP1;P2;durP2;ratioP2
39600;SDS011;25297;44.758;11.310;2023-05-10T00:01:58;5.55;;;4.53;;
39600;SDS011;25297;44.758;11.310;2023-05-10T00:04:23;18.10;;;5.72;;
39600;SDS011;25297;44.758;11.310;2023-05-10T00:06:52;4.60;;;3.92;;
39600;SDS011;25297;44.758;11.310;2023-05-10T00:09:18;5.15;;;4.20;;
39600;SDS011;25297;44.758;11.310;2023-05-10T00:11:44;8.77;;;4.35;;
39600;SDS011;25297;44.758;11.310;2023-05-10T00:14:10;6.35;;;4.30;;
39600;SDS011;25297;44.758;11.310;2023-05-10T00:16:36;7.55;;;4.40;;
39600;SDS011;25297;44.758;11.310;2023-05-10T00:19:02;7.10;;;4.57;;
39600;SDS011;25297;44.758;11.310;2023-05-10T00:21:27;9.98;;;5.05;;
39600;SDS011;25297;44.758;11.310;2023-05-10T00:23:53;10.15;;;4.65;;
39600;SDS011;25297;44.758;11.310;2023-05-10T00:26:19;8.48;;;4.90;;
39600;SDS011;25297;44.758;11.310;2023-05-10T00:28:45;7.60;;;4.55;;
39600;SDS011;25297;44.758;11.310;2023-05-10T00:31:11;6.22;;;4.85;;
39600;SDS011;25297;44.758;11.310;2023-05-10T00:33:36;6.85;;;4.70;;
39600;SDS011;25297;44.758;11.310;2023-05-10T00:36:02;6.78;;;4.82;;
39600;SDS011;25297;44.758;11.310;2023-05-10T00:38:28;6.47;;;5.13;;
39600;SDS011;25297;44.758;11.310;2023-05-10T00:40:53;8.48;;;4.57;;
39600;SDS011;25297;44.758;11.310;2023-05-10T00:43:19;7.55;;;4.72;;
39600;SDS011;25297;44.758;11.310;2023-05-10T00:45:45;8.52;;;4.72;;
39600;SDS011;25297;44.758;11.310;2023-05-10T00:48:11;9.15;;;5.40;;
39600;SDS011;25297;44.758;11.310;2023-05-10T00:50:37;7.43;;;5.10;;
39600;SDS011;25297;44.758;11.310;2023-05-10T00:53:05;8.60;;;5.13;;
39600;SDS011;25297;44.758;11.310;2023-05-10T00:55:32;7.65;;;5.63;;
39600;SDS011;25297;44.758;11.310;2023-05-10T00:57:58;6.55;;;4.43;;
39600;SDS011;25297;44.758;11.310;2023-05-10T01:00:24;7.57;;;4.85;;
39600;SDS011;25297;44.758;11.310;2023-05-10T01:02:50;7.25;;;4.60;;
39600;SDS011;25297;44.758;11.310;2023-05-10T01:05:18;5.57;;;4.05;;
39600;SDS011;25297;44.758;11.310;2023-05-10T01:07:43;6.47;;;4.20;;
39600;SDS011;25297;44.758;11.310;2023-05-10T01:10:09;7.72;;;4.85;;
39600;SDS011;25297;44.758;11.310;2023-05-10T01:12:36;5.82;;;4.00;;
39600;SDS011;25297;44.758;11.310;2023-05-10T01:15:05;5.50;;;4.18;;
39600;SDS011;25297;44.758;11.310;2023-05-10T01:17:36;6.30;;;4.50;;
39600;SDS011;25297;44.758;11.310;2023-05-10T01:20:04;7.28;;;4.30;;
39600;SDS011;25297;44.758;11.310;2023-05-10T01:33:27;8.32;;;5.22;;
39600;SDS011;25297;44.758;11.310;2023-05-10T01:44:14;5.80;;;4.18;;
39600;SDS011;25297;44.758;11.310;2023-05-10T01:46:49;7.43;;;4.13;;
39600;SDS011;25297;44.758;11.310;2023-05-10T01:49:26;7.13;;;4.35;;
39600;SDS011;25297;44.758;11.310;2023-05-10T01:51:59;5.85;;;4.30;;
39600;SDS011;25297;44.758;11.310;2023-05-10T01:54:30;7.97;;;3.90;;
39600;SDS011;25297;44.758;11.310;2023-05-10T01:57:05;6.63;;;4.30;;
39600;SDS011;25297;44.758;11.310;2023-05-10T01:59:35;5.82;;;4.18;;
39600;SDS011;25297;44.758;11.310;2023-05-10T02:02:06;6.57;;;4.53;;
39600;SDS011;25297;44.758;11.310;2023-05-10T02:04:38;5.88;;;4.30;;
39600;SDS011;25297;44.758;11.310;2023-05-10T02:07:06;6.32;;;4.00;;
39600;SDS011;25297;44.758;11.310;2023-05-10T02:09:33;7.32;;;4.25;;
39600;SDS011;25297;44.758;11.310;2023-05-10T02:12:01;6.07;;;4.22;;
39600;SDS011;25297;44.758;11.310;2023-05-10T02:14:29;6.13;;;4.30;;
39600;SDS011;25297;44.758;11.310;2023-05-10T02:16:57;5.22;;;4.05;;
39600;SDS011;25297;44.758;11.310;2023-05-10T02:19:24;6.22;;;4.38;;
39600;SDS011;25297;44.758;11.310;2023-05-10T02:21:52;5.68;;;3.70;;
39600;SDS011;25297;44.758;11.310;2023-05-10T02:24:19;9.65;;;4.25;;
39600;SDS011;25297;44.758;11.310;2023-05-10T02:26:46;5.63;;;3.80;;
39600;SDS011;25297;44.758;11.310;2023-05-10T02:29:14;5.97;;;3.88;;
39600;SDS011;25297;44.758;11.310;2023-05-10T02:31:40;5.03;;;3.65;;
39600;SDS011;25297;44.758;11.310;2023-05-10T02:34:08;7.07;;;4.40;;
39600;SDS011;25297;44.758;11.310;2023-05-10T02:36:36;5.75;;;3.88;;
39600;SDS011;25297;44.758;11.310;2023-05-10T02:39:03;7.28;;;3.85;;
39600;SDS011;25297;44.758;11.310;2023-05-10T02:41:34;6.03;;;3.72;;
39600;SDS011;25297;44.758;11.310;2023-05-10T02:44:01;6.00;;;3.78;;
39600;SDS011;25297;44.758;11.310;2023-05-10T02:46:28;6.63;;;4.32;;
39600;SDS011;25297;44.758;11.310;2023-05-10T02:48:55;6.35;;;3.92;;
39600;SDS011;25297;44.758;11.310;2023-05-10T02:51:20;6.43;;;3.45;;
39600;SDS011;25297;44.758;11.310;2023-05-10T02:53:50;5.90;;;3.65;;
39600;SDS011;25297;44.758;11.310;2023-05-10T02:56:25;6.85;;;3.55;;
39600;SDS011;25297;44.758;11.310;2023-05-10T02:58:56;7.72;;;3.88;;
39600;SDS011;25297;44.758;11.310;2023-05-10T03:01:22;5.47;;;3.50;;
39600;SDS011;25297;44.758;11.310;2023-05-10T03:03:48;7.93;;;3.90;;
39600;SDS011;25297;44.758;11.310;2023-05-10T03:06:14;6.95;;;3.65;;
39600;SDS011;25297;44.758;11.310;2023-05-10T03:08:41;5.50;;;3.70;;
39600;SDS011;25297;44.758;11.310;2023-05-10T03:13:50;6.35;;;3.45;;
39600;SDS011;25297;44.758;11.310;2023-05-10T03:16:28;6.75;;;4.00;;
39600;SDS011;25297;44.758;11.310;2023-05-10T03:19:12;6.15;;;3.90;;
39600;SDS011;25297;44.758;11.310;2023-05-10T03:21:46;5.63;;;3.70;;
39600;SDS011;25297;44.758;11.310;2023-05-10T03:24:15;6.50;;;3.95;;
39600;SDS011;25297;44.758;11.310;2023-05-10T03:26:44;6.45;;;3.70;;
39600;SDS011;25297;44.758;11.310;2023-05-10T03:29:11;4.72;;;3.42;;
39600;SDS011;25297;44.758;11.310;2023-05-10T03:31:38;6.53;;;3.65;;
39600;SDS011;25297;44.758;11.310;2023-05-10T03:34:04;4.95;;;3.60;;
39600;SDS011;25297;44.758;11.310;2023-05-10T03:36:29;5.32;;;4.05;;
39600;SDS011;25297;44.758;11.310;2023-05-10T03:38:55;7.10;;;3.97;;
39600;SDS011;25297;44.758;11.310;2023-05-10T03:41:21;5.35;;;3.45;;
39600;SDS011;25297;44.758;11.310;2023-05-10T03:43:46;4.35;;;3.63;;
39600;SDS011;25297;44.758;11.310;2023-05-10T03:46:12;6.93;;;4.38;;
39600;SDS011;25297;44.758;11.310;2023-05-10T03:48:37;8.02;;;3.55;;
39600;SDS011;25297;44.758;11.310;2023-05-10T03:51:03;4.13;;;3.30;;
39600;SDS011;25297;44.758;11.310;2023-05-10T03:53:29;6.18;;;4.03;;
39600;SDS011;25297;44.758;11.310;2023-05-10T03:55:54;5.90;;;3.45;;
39600;SDS011;25297;44.758;11.310;2023-05-10T03:58:20;6.00;;;3.53;;
39600;SDS011;25297;44.758;11.310;2023-05-10T04:00:46;5.95;;;3.17;;
39600;SDS011;25297;44.758;11.310;2023-05-10T04:03:12;7.15;;;4.30;;
39600;SDS011;25297;44.758;11.310;2023-05-10T04:05:38;4.57;;;3.20;;
39600;SDS011;25297;44.758;11.310;2023-05-10T04:08:04;5.90;;;3.47;;
39600;SDS011;25297;44.758;11.310;2023-05-10T04:10:30;5.65;;;3.38;;
39600;SDS011;25297;44.758;11.310;2023-05-10T04:12:56;5.57;;;3.33;;
39600;SDS011;25297;44.758;11.310;2023-05-10T04:15:22;5.72;;;2.97;;
39600;SDS011;25297;44.758;11.310;2023-05-10T04:17:47;7.90;;;3.33;;
39600;SDS011;25297;44.758;11.310;2023-05-10T04:20:13;4.28;;;2.83;;
39600;SDS011;25297;44.758;11.310;2023-05-10T04:22:39;5.90;;;3.33;;
39600;SDS011;25297;44.758;11.310;2023-05-10T04:25:05;5.22;;;3.15;;
39600;SDS011;25297;44.758;11.310;2023-05-10T04:27:32;6.07;;;3.70;;
39600;SDS011;25297;44.758;11.310;2023-05-10T04:29:57;4.95;;;3.70;;
39600;SDS011;25297;44.758;11.310;2023-05-10T04:32:23;3.97;;;2.83;;
39600;SDS011;25297;44.758;11.310;2023-05-10T04:34:49;6.70;;;3.25;;
39600;SDS011;25297;44.758;11.310;2023-05-10T04:37:16;8.68;;;3.55;;
39600;SDS011;25297;44.758;11.310;2023-05-10T04:39:42;5.10;;;2.90;;
39600;SDS011;25297;44.758;11.310;2023-05-10T04:42:07;3.30;;;3.00;;
39600;SDS011;25297;44.758;11.310;2023-05-10T04:44:33;4.43;;;2.88;;
39600;SDS011;25297;44.758;11.310;2023-05-10T04:47:00;6.10;;;3.60;;
39600;SDS011;25297;44.758;11.310;2023-05-10T04:49:27;4.78;;;2.97;;
39600;SDS011;25297;44.758;11.310;2023-05-10T04:51:53;7.63;;;3.03;;
39600;SDS011;25297;44.758;11.310;2023-05-10T04:54:18;6.30;;;3.60;;
39600;SDS011;25297;44.758;11.310;2023-05-10T04:56:44;6.05;;;3.42;;
39600;SDS011;25297;44.758;11.310;2023-05-10T04:59:10;7.85;;;3.30;;
39600;SDS011;25297;44.758;11.310;2023-05-10T05:01:36;4.55;;;2.90;;
39600;SDS011;25297;44.758;11.310;2023-05-10T05:04:01;4.72;;;3.28;;
39600;SDS011;25297;44.758;11.310;2023-05-10T05:06:27;5.10;;;3.58;;
39600;SDS011;25297;44.758;11.310;2023-05-10T05:08:53;5.72;;;3.40;;
39600;SDS011;25297;44.758;11.310;2023-05-10T05:11:18;5.07;;;3.20;;
39600;SDS011;25297;44.758;11.310;2023-05-10T05:13:44;5.47;;;2.65;;
39600;SDS011;25297;44.758;11.310;2023-05-10T05:16:10;3.70;;;2.85;;
39600;SDS011;25297;44.758;11.310;2023-05-10T05:18:36;6.68;;;3.03;;
39600;SDS011;25297;44.758;11.310;2023-05-10T05:21:01;4.00;;;2.90;;
39600;SDS011;25297;44.758;11.310;2023-05-10T05:23:27;4.78;;;2.72;;
39600;SDS011;25297;44.758;11.310;2023-05-10T05:25:53;6.10;;;2.92;;
39600;SDS011;25297;44.758;11.310;2023-05-10T05:28:22;3.83;;;2.97;;
39600;SDS011;25297;44.758;11.310;2023-05-10T05:30:47;4.47;;;3.08;;
39600;SDS011;25297;44.758;11.310;2023-05-10T05:33:13;3.67;;;2.38;;
39600;SDS011;25297;44.758;11.310;2023-05-10T05:35:40;5.70;;;3.13;;
39600;SDS011;25297;44.758;11.310;2023-05-10T05:38:07;5.85;;;2.90;;
39600;SDS011;25297;44.758;11.310;2023-05-10T05:40:33;5.85;;;2.67;;
39600;SDS011;25297;44.758;11.310;2023-05-10T05:42:59;4.70;;;3.13;;
39600;SDS011;25297;44.758;11.310;2023-05-10T05:45:24;6.13;;;2.83;;
39600;SDS011;25297;44.758;11.310;2023-05-10T05:47:50;4.50;;;3.08;;
39600;SDS011;25297;44.758;11.310;2023-05-10T05:50:16;5.35;;;3.20;;
39600;SDS011;25297;44.758;11.310;2023-05-10T05:52:41;4.53;;;2.90;;
39600;SDS011;25297;44.758;11.310;2023-05-10T05:55:07;5.25;;;3.10;;
39600;SDS011;25297;44.758;11.310;2023-05-10T05:57:33;6.78;;;3.15;;
39600;SDS011;25297;44.758;11.310;2023-05-10T05:59:58;4.55;;;3.45;;
39600;SDS011;25297;44.758;11.310;2023-05-10T06:02:24;8.32;;;3.58;;
39600;SDS011;25297;44.758;11.310;2023-05-10T06:04:50;5.90;;;3.40;;
39600;SDS011;25297;44.758;11.310;2023-05-10T06:07:15;6.68;;;4.30;;
39600;SDS011;25297;44.758;11.310;2023-05-10T06:09:41;7.20;;;3.05;;
39600;SDS011;25297;44.758;11.310;2023-05-10T06:12:07;5.55;;;4.68;;
39600;SDS011;25297;44.758;11.310;2023-05-10T06:14:32;6.40;;;3.58;;
39600;SDS011;25297;44.758;11.310;2023-05-10T06:16:58;6.50;;;4.00;;
39600;SDS011;25297;44.758;11.310;2023-05-10T06:19:24;6.32;;;4.07;;
39600;SDS011;25297;44.758;11.310;2023-05-10T06:21:51;6.05;;;4.30;;
39600;SDS011;25297;44.758;11.310;2023-05-10T06:24:17;9.05;;;4.28;;
39600;SDS011;25297;44.758;11.310;2023-05-10T06:26:42;5.20;;;4.07;;
39600;SDS011;25297;44.758;11.310;2023-05-10T06:29:08;5.60;;;4.10;;
39600;SDS011;25297;44.758;11.310;2023-05-10T06:31:33;9.32;;;3.88;;
39600;SDS011;25297;44.758;11.310;2023-05-10T06:33:59;4.60;;;3.50;;
39600;SDS011;25297;44.758;11.310;2023-05-10T06:36:25;5.05;;;3.50;;
39600;SDS011;25297;44.758;11.310;2023-05-10T06:38:52;6.20;;;4.68;;
39600;SDS011;25297;44.758;11.310;2023-05-10T06:41:17;6.80;;;4.45;;
39600;SDS011;25297;44.758;11.310;2023-05-10T06:43:43;7.88;;;5.18;;
39600;SDS011;25297;44.758;11.310;2023-05-10T06:46:08;6.70;;;4.93;;
39600;SDS011;25297;44.758;11.310;2023-05-10T06:48:34;10.32;;;5.18;;
39600;SDS011;25297;44.758;11.310;2023-05-10T06:51:00;9.27;;;5.05;;
39600;SDS011;25297;44.758;11.310;2023-05-10T06:53:26;7.32;;;5.32;;
39600;SDS011;25297;44.758;11.310;2023-05-10T06:55:52;7.70;;;5.15;;
39600;SDS011;25297;44.758;11.310;2023-05-10T06:58:17;6.95;;;5.13;;
39600;SDS011;25297;44.758;11.310;2023-05-10T07:00:43;7.63;;;5.20;;
39600;SDS011;25297;44.758;11.310;2023-05-10T07:03:10;7.43;;;5.00;;
39600;SDS011;25297;44.758;11.310;2023-05-10T07:05:35;8.45;;;5.47;;
39600;SDS011;25297;44.758;11.310;2023-05-10T07:08:01;7.20;;;4.90;;
39600;SDS011;25297;44.758;11.310;2023-05-10T07:10:27;7.13;;;4.80;;
39600;SDS011;25297;44.758;11.310;2023-05-10T07:12:53;7.35;;;5.38;;
39600;SDS011;25297;44.758;11.310;2023-05-10T07:15:19;9.15;;;4.95;;
39600;SDS011;25297;44.758;11.310;2023-05-10T07:17:44;9.25;;;5.07;;
39600;SDS011;25297;44.758;11.310;2023-05-10T07:20:10;8.05;;;5.13;;
39600;SDS011;25297;44.758;11.310;2023-05-10T07:22:36;6.95;;;4.57;;
39600;SDS011;25297;44.758;11.310;2023-05-10T07:25:02;9.93;;;5.45;;
39600;SDS011;25297;44.758;11.310;2023-05-10T07:27:28;7.97;;;4.95;;
39600;SDS011;25297;44.758;11.310;2023-05-10T07:29:53;7.47;;;5.30;;
39600;SDS011;25297;44.758;11.310;2023-05-10T07:32:19;9.10;;;4.80;;
39600;SDS011;25297;44.758;11.310;2023-05-10T07:34:46;6.88;;;4.93;;
39600;SDS011;25297;44.758;11.310;2023-05-10T07:37:11;6.85;;;4.97;;
39600;SDS011;25297;44.758;11.310;2023-05-10T07:39:37;6.85;;;5.10;;
39600;SDS011;25297;44.758;11.310;2023-05-10T07:42:03;8.48;;;4.90;;
39600;SDS011;25297;44.758;11.310;2023-05-10T07:44:28;7.50;;;4.88;;
39600;SDS011;25297;44.758;11.310;2023-05-10T07:46:54;10.73;;;5.22;;
39600;SDS011;25297;44.758;11.310;2023-05-10T07:49:20;8.90;;;5.10;;
39600;SDS011;25297;44.758;11.310;2023-05-10T07:51:46;6.90;;;4.78;;
39600;SDS011;25297;44.758;11.310;2023-05-10T07:54:12;8.40;;;5.03;;
39600;SDS011;25297;44.758;11.310;2023-05-10T07:56:38;9.57;;;4.95;;
39600;SDS011;25297;44.758;11.310;2023-05-10T07:59:04;9.75;;;4.55;;
39600;SDS011;25297;44.758;11.310;2023-05-10T08:01:32;6.60;;;4.43;;
39600;SDS011;25297;44.758;11.310;2023-05-10T08:03:59;6.38;;;4.80;;
39600;SDS011;25297;44.758;11.310;2023-05-10T08:06:25;6.75;;;4.95;;
39600;SDS011;25297;44.758;11.310;2023-05-10T08:08:55;8.00;;;5.07;;
39600;SDS011;25297;44.758;11.310;2023-05-10T08:11:21;6.95;;;4.53;;
39600;SDS011;25297;44.758;11.310;2023-05-10T08:13:47;7.55;;;5.03;;
39600;SDS011;25297;44.758;11.310;2023-05-10T08:16:15;7.32;;;5.25;;
39600;SDS011;25297;44.758;11.310;2023-05-10T08:18:44;6.47;;;4.85;;
39600;SDS011;25297;44.758;11.310;2023-05-10T08:21:11;8.93;;;5.40;;
39600;SDS011;25297;44.758;11.310;2023-05-10T08:23:37;8.63;;;4.90;;
39600;SDS011;25297;44.758;11.310;2023-05-10T08:26:03;8.65;;;5.30;;
39600;SDS011;25297;44.758;11.310;2023-05-10T08:28:29;8.63;;;5.35;;
39600;SDS011;25297;44.758;11.310;2023-05-10T08:30:55;7.57;;;5.13;;
39600;SDS011;25297;44.758;11.310;2023-05-10T08:33:20;6.22;;;4.40;;
39600;SDS011;25297;44.758;11.310;2023-05-10T08:35:46;9.43;;;5.05;;
39600;SDS011;25297;44.758;11.310;2023-05-10T08:38:12;8.70;;;4.75;;
39600;SDS011;25297;44.758;11.310;2023-05-10T08:40:38;7.50;;;4.45;;
39600;SDS011;25297;44.758;11.310;2023-05-10T08:43:09;7.35;;;4.50;;
39600;SDS011;25297;44.758;11.310;2023-05-10T08:45:40;8.00;;;5.20;;
39600;SDS011;25297;44.758;11.310;2023-05-10T08:48:13;7.47;;;5.45;;
39600;SDS011;25297;44.758;11.310;2023-05-10T08:50:40;7.07;;;4.80;;
39600;SDS011;25297;44.758;11.310;2023-05-10T08:53:10;6.10;;;4.88;;
39600;SDS011;25297;44.758;11.310;2023-05-10T08:55:38;8.65;;;5.60;;
39600;SDS011;25297;44.758;11.310;2023-05-10T08:58:05;6.75;;;4.47;;
39600;SDS011;25297;44.758;11.310;2023-05-10T09:00:31;7.43;;;5.28;;
39600;SDS011;25297;44.758;11.310;2023-05-10T09:02:58;8.40;;;5.00;;
39600;SDS011;25297;44.758;11.310;2023-05-10T09:05:24;6.80;;;5.10;;
39600;SDS011;25297;44.758;11.310;2023-05-10T09:07:50;8.43;;;5.20;;
39600;SDS011;25297;44.758;11.310;2023-05-10T09:10:16;8.55;;;5.03;;
39600;SDS011;25297;44.758;11.310;2023-05-10T09:12:42;6.78;;;5.45;;
39600;SDS011;25297;44.758;11.310;2023-05-10T09:15:10;7.85;;;5.07;;
39600;SDS011;25297;44.758;11.310;2023-05-10T09:17:36;8.43;;;5.47;;
39600;SDS011;25297;44.758;11.310;2023-05-10T09:20:04;7.60;;;5.18;;
39600;SDS011;25297;44.758;11.310;2023-05-10T09:22:30;7.35;;;5.20;;
39600;SDS011;25297;44.758;11.310;2023-05-10T09:27:32;8.15;;;5.53;;
39600;SDS011;25297;44.758;11.310;2023-05-10T09:29:58;7.05;;;5.38;;
39600;SDS011;25297;44.758;11.310;2023-05-10T09:35:09;13.50;;;7.60;;
39600;SDS011;25297;44.758;11.310;2023-05-10T09:37:40;7.38;;;5.45;;
39600;SDS011;25297;44.758;11.310;2023-05-10T09:40:11;6.57;;;5.00;;
39600;SDS011;25297;44.758;11.310;2023-05-10T09:45:36;6.55;;;5.15;;
39600;SDS011;25297;44.758;11.310;2023-05-10T09:48:02;6.95;;;5.18;;
39600;SDS011;25297;44.758;11.310;2023-05-10T09:50:31;9.13;;;5.60;;
39600;SDS011;25297;44.758;11.310;2023-05-10T09:52:57;7.30;;;4.70;;
39600;SDS011;25297;44.758;11.310;2023-05-10T09:55:25;8.02;;;6.25;;
39600;SDS011;25297;44.758;11.310;2023-05-10T09:58:14;6.40;;;4.38;;
39600;SDS011;25297;44.758;11.310;2023-05-10T10:00:41;9.90;;;5.15;;
39600;SDS011;25297;44.758;11.310;2023-05-10T10:03:15;8.40;;;5.03;;
39600;SDS011;25297;44.758;11.310;2023-05-10T10:05:44;6.25;;;4.82;;
39600;SDS011;25297;44.758;11.310;2023-05-10T10:08:12;8.48;;;5.25;;
39600;SDS011;25297;44.758;11.310;2023-05-10T10:10:38;6.97;;;5.15;;
39600;SDS011;25297;44.758;11.310;2023-05-10T10:13:09;8.98;;;5.20;;
39600;SDS011;25297;44.758;11.310;2023-05-10T10:15:35;5.30;;;4.10;;
39600;SDS011;25297;44.758;11.310;2023-05-10T10:18:00;7.72;;;5.00;;
39600;SDS011;25297;44.758;11.310;2023-05-10T10:20:28;8.43;;;5.18;;
39600;SDS011;25297;44.758;11.310;2023-05-10T10:22:54;7.00;;;5.18;;
39600;SDS011;25297;44.758;11.310;2023-05-10T10:25:20;7.85;;;4.40;;
39600;SDS011;25297;44.758;11.310;2023-05-10T10:30:24;9.93;;;4.97;;
39600;SDS011;25297;44.758;11.310;2023-05-10T10:37:58;6.05;;;3.83;;
39600;SDS011;25297;44.758;11.310;2023-05-10T10:40:28;7.03;;;4.68;;
39600;SDS011;25297;44.758;11.310;2023-05-10T10:42:55;4.95;;;4.30;;
39600;SDS011;25297;44.758;11.310;2023-05-10T10:45:22;8.13;;;4.53;;
39600;SDS011;25297;44.758;11.310;2023-05-10T10:47:49;8.27;;;4.78;;
39600;SDS011;25297;44.758;11.310;2023-05-10T10:50:44;7.55;;;4.85;;
39600;SDS011;25297;44.758;11.310;2023-05-10T10:53:13;7.28;;;5.03;;
39600;SDS011;25297;44.758;11.310;2023-05-10T10:55:45;9.73;;;4.97;;
39600;SDS011;25297;44.758;11.310;2023-05-10T10:58:15;9.68;;;5.35;;
39600;SDS011;25297;44.758;11.310;2023-05-10T11:06:40;6.15;;;4.30;;
39600;SDS011;25297;44.758;11.310;2023-05-10T11:09:07;6.68;;;4.35;;
39600;SDS011;25297;44.758;11.310;2023-05-10T11:11:35;6.32;;;4.30;;
39600;SDS011;25297;44.758;11.310;2023-05-10T11:14:04;7.70;;;4.47;;
39600;SDS011;25297;44.758;11.310;2023-05-10T11:16:42;8.75;;;4.70;;
39600;SDS011;25297;44.758;11.310;2023-05-10T11:19:10;6.53;;;3.65;;
39600;SDS011;25297;44.758;11.310;2023-05-10T11:24:29;6.85;;;4.00;;
39600;SDS011;25297;44.758;11.310;2023-05-10T11:26:55;6.10;;;4.13;;
39600;SDS011;25297;44.758;11.310;2023-05-10T11:29:21;6.15;;;3.88;;
39600;SDS011;25297;44.758;11.310;2023-05-10T11:31:48;7.78;;;3.90;;
39600;SDS011;25297;44.758;11.310;2023-05-10T11:34:28;7.07;;;4.13;;
39600;SDS011;25297;44.758;11.310;2023-05-10T11:37:00;8.30;;;4.22;;
39600;SDS011;25297;44.758;11.310;2023-05-10T11:39:27;5.32;;;3.72;;
39600;SDS011;25297;44.758;11.310;2023-05-10T11:41:57;6.05;;;4.38;;
39600;SDS011;25297;44.758;11.310;2023-05-10T11:44:33;4.82;;;3.35;;
39600;SDS011;25297;44.758;11.310;2023-05-10T11:46:59;7.32;;;3.78;;
39600;SDS011;25297;44.758;11.310;2023-05-10T11:49:28;8.07;;;3.80;;
39600;SDS011;25297;44.758;11.310;2023-05-10T11:52:03;5.75;;;3.70;;
39600;SDS011;25297;44.758;11.310;2023-05-10T11:54:32;5.00;;;3.85;;
39600;SDS011;25297;44.758;11.310;2023-05-10T11:56:59;4.85;;;3.60;;
39600;SDS011;25297;44.758;11.310;2023-05-10T11:59:25;4.72;;;3.88;;
39600;SDS011;25297;44.758;11.310;2023-05-10T12:01:51;4.43;;;3.20;;
39600;SDS011;25297;44.758;11.310;2023-05-10T12:04:16;5.32;;;2.97;;
39600;SDS011;25297;44.758;11.310;2023-05-10T12:06:42;3.80;;;2.95;;
39600;SDS011;25297;44.758;11.310;2023-05-10T12:09:09;4.20;;;3.13;;
39600;SDS011;25297;44.758;11.310;2023-05-10T12:11:38;4.25;;;3.13;;
39600;SDS011;25297;44.758;11.310;2023-05-10T12:14:05;5.65;;;2.50;;
39600;SDS011;25297;44.758;11.310;2023-05-10T12:16:31;5.38;;;3.15;;
39600;SDS011;25297;44.758;11.310;2023-05-10T12:18:58;4.85;;;2.83;;
39600;SDS011;25297;44.758;11.310;2023-05-10T12:21:25;3.90;;;3.00;;
39600;SDS011;25297;44.758;11.310;2023-05-10T12:23:53;4.03;;;3.08;;
39600;SDS011;25297;44.758;11.310;2023-05-10T12:26:23;5.20;;;3.03;;
39600;SDS011;25297;44.758;11.310;2023-05-10T12:28:51;3.72;;;2.78;;
39600;SDS011;25297;44.758;11.310;2023-05-10T12:31:20;3.72;;;2.75;;
39600;SDS011;25297;44.758;11.310;2023-05-10T12:33:46;5.00;;;3.00;;
39600;SDS011;25297;44.758;11.310;2023-05-10T12:36:14;3.08;;;2.47;;
39600;SDS011;25297;44.758;11.310;2023-05-10T12:38:41;5.60;;;3.08;;
39600;SDS011;25297;44.758;11.310;2023-05-10T12:41:09;6.00;;;2.95;;
39600;SDS011;25297;44.758;11.310;2023-05-10T12:43:36;4.63;;;3.30;;
39600;SDS011;25297;44.758;11.310;2023-05-10T12:48:31;6.18;;;3.65;;
39600;SDS011;25297;44.758;11.310;2023-05-10T12:50:58;6.25;;;3.40;;
39600;SDS011;25297;44.758;11.310;2023-05-10T12:53:24;4.15;;;2.60;;
39600;SDS011;25297;44.758;11.310;2023-05-10T12:55:50;5.13;;;3.10;;
39600;SDS011;25297;44.758;11.310;2023-05-10T12:58:16;4.85;;;2.90;;
39600;SDS011;25297;44.758;11.310;2023-05-10T13:00:42;5.25;;;2.40;;
39600;SDS011;25297;44.758;11.310;2023-05-10T13:03:08;10.05;;;2.55;;
39600;SDS011;25297;44.758;11.310;2023-05-10T13:05:35;4.53;;;2.08;;
39600;SDS011;25297;44.758;11.310;2023-05-10T13:08:01;2.95;;;2.00;;
39600;SDS011;25297;44.758;11.310;2023-05-10T13:10:28;7.75;;;1.88;;
39600;SDS011;25297;44.758;11.310;2023-05-10T13:12:55;2.53;;;1.90;;
39600;SDS011;25297;44.758;11.310;2023-05-10T13:15:21;4.28;;;2.00;;
39600;SDS011;25297;44.758;11.310;2023-05-10T13:17:47;3.13;;;1.88;;
39600;SDS011;25297;44.758;11.310;2023-05-10T13:20:13;2.95;;;1.70;;
39600;SDS011;25297;44.758;11.310;2023-05-10T13:22:39;3.58;;;2.47;;
39600;SDS011;25297;44.758;11.310;2023-05-10T13:25:06;3.47;;;1.75;;
39600;SDS011;25297;44.758;11.310;2023-05-10T13:27:32;3.22;;;2.22;;
39600;SDS011;25297;44.758;11.310;2023-05-10T13:29:57;4.60;;;2.83;;
39600;SDS011;25297;44.758;11.310;2023-05-10T13:32:24;4.80;;;3.20;;
39600;SDS011;25297;44.758;11.310;2023-05-10T13:34:50;6.05;;;3.63;;
39600;SDS011;25297;44.758;11.310;2023-05-10T13:37:16;4.32;;;3.00;;
39600;SDS011;25297;44.758;11.310;2023-05-10T13:39:42;5.63;;;2.63;;
39600;SDS011;25297;44.758;11.310;2023-05-10T13:42:07;3.35;;;2.45;;
39600;SDS011;25297;44.758;11.310;2023-05-10T13:44:33;5.07;;;2.60;;
39600;SDS011;25297;44.758;11.310;2023-05-10T13:46:59;3.20;;;2.25;;
39600;SDS011;25297;44.758;11.310;2023-05-10T13:49:25;4.75;;;2.42;;
39600;SDS011;25297;44.758;11.310;2023-05-10T13:51:50;3.40;;;2.25;;
39600;SDS011;25297;44.758;11.310;2023-05-10T13:54:17;3.55;;;2.47;;
39600;SDS011;25297;44.758;11.310;2023-05-10T13:56:44;3.50;;;2.28;;
39600;SDS011;25297;44.758;11.310;2023-05-10T13:59:12;5.90;;;2.58;;
39600;SDS011;25297;44.758;11.310;2023-05-10T14:01:39;3.20;;;2.05;;
39600;SDS011;25297;44.758;11.310;2023-05-10T14:04:05;3.25;;;2.10;;
39600;SDS011;25297;44.758;11.310;2023-05-10T14:06:32;4.13;;;2.00;;
39600;SDS011;25297;44.758;11.310;2023-05-10T14:08:58;3.95;;;2.53;;
39600;SDS011;25297;44.758;11.310;2023-05-10T14:11:24;3.55;;;2.53;;
39600;SDS011;25297;44.758;11.310;2023-05-10T14:13:50;5.10;;;2.40;;
39600;SDS011;25297;44.758;11.310;2023-05-10T14:16:15;4.30;;;2.95;;
39600;SDS011;25297;44.758;11.310;2023-05-10T14:18:41;2.88;;;1.95;;
39600;SDS011;25297;44.758;11.310;2023-05-10T14:21:06;2.80;;;2.10;;
39600;SDS011;25297;44.758;11.310;2023-05-10T14:23:32;3.03;;;2.50;;
39600;SDS011;25297;44.758;11.310;2023-05-10T14:25:58;3.80;;;2.58;;
39600;SDS011;25297;44.758;11.310;2023-05-10T14:28:23;2.70;;;2.40;;
39600;SDS011;25297;44.758;11.310;2023-05-10T14:30:49;4.07;;;2.10;;
39600;SDS011;25297;44.758;11.310;2023-05-10T14:33:16;3.20;;;2.20;;
39600;SDS011;25297;44.758;11.310;2023-05-10T14:35:42;2.63;;;2.08;;
39600;SDS011;25297;44.758;11.310;2023-05-10T14:38:07;2.88;;;2.25;;
39600;SDS011;25297;44.758;11.310;2023-05-10T14:40:33;3.15;;;2.40;;
39600;SDS011;25297;44.758;11.310;2023-05-10T14:42:59;2.80;;;2.05;;
39600;SDS011;25297;44.758;11.310;2023-05-10T14:45:25;3.78;;;2.42;;
39600;SDS011;25297;44.758;11.310;2023-05-10T14:47:50;5.75;;;2.03;;
39600;SDS011;25297;44.758;11.310;2023-05-10T14:50:16;3.47;;;2.03;;
39600;SDS011;25297;44.758;11.310;2023-05-10T14:52:43;2.30;;;1.85;;
39600;SDS011;25297;44.758;11.310;2023-05-10T14:55:09;2.60;;;2.05;;
39600;SDS011;25297;44.758;11.310;2023-05-10T14:57:35;2.85;;;2.17;;
39600;SDS011;25297;44.758;11.310;2023-05-10T15:00:01;2.78;;;1.80;;
39600;SDS011;25297;44.758;11.310;2023-05-10T15:02:28;1.90;;;1.63;;
39600;SDS011;25297;44.758;11.310;2023-05-10T15:04:55;3.50;;;2.03;;
39600;SDS011;25297;44.758;11.310;2023-05-10T15:07:22;4.20;;;2.30;;
39600;SDS011;25297;44.758;11.310;2023-05-10T15:09:48;2.58;;;2.15;;
39600;SDS011;25297;44.758;11.310;2023-05-10T15:12:13;3.28;;;1.92;;
39600;SDS011;25297;44.758;11.310;2023-05-10T15:14:39;3.00;;;2.30;;
39600;SDS011;25297;44.758;11.310;2023-05-10T15:17:05;3.47;;;2.13;;
39600;SDS011;25297;44.758;11.310;2023-05-10T15:19:31;4.97;;;2.50;;
39600;SDS011;25297;44.758;11.310;2023-05-10T15:21:58;3.35;;;2.20;;